sensor_id;sensor_type;location;lat;lon;timestamp;pressure;altitude;pressure_sealevel;temperature;humidity
34454;BME280;60061;52.080;5.312;2022-11-20T00:02:27;101339.0;;;-1.72;97.28
34454;BME280;60061;52.080;5.312;2022-11-20T00:04:03;101337.0;;;-1.75;96.26
34454;BME280;60061;52.080;5.312;2022-11-20T00:05:39;101335.0;;;-1.83;95.88
34454;BME280;60061;52.080;5.312;2022-11-20T00:07:16;101332.0;;;-1.92;98.48
34454;BME280;60061;52.080;5.312;2022-11-20T00:10:31;101331.0;;;-1.86;97.2
34454;BME280;60061;52.080;5.312;2022-11-20T00:12:08;101331.0;;;-1.85;95.57
34454;BME280;60061;52.080;5.312;2022-11-20T00:13:44;101334.0;;;-1.77;92.13
34454;BME280;60061;52.080;5.312;2022-11-20T00:16:57;101330.0;;;-1.69;90.84
34454;BME280;60061;52.080;5.312;2022-11-20T00:18:34;101333.0;;;-1.81;91.25
34454;BME280;60061;52.080;5.312;2022-11-20T00:20:11;101336.0;;;-1.67;90.31
34454;BME280;60061;52.080;5.312;2022-11-20T00:23:27;101343.0;;;-1.66;90.1
34454;BME280;60061;52.080;5.312;2022-11-20T00:25:04;101338.0;;;-1.84;89.99
34454;BME280;60061;52.080;5.312;2022-11-20T00:26:41;101335.0;;;-1.94;92.12
34454;BME280;60061;52.080;5.312;2022-11-20T00:28:17;101328.0;;;-2.02;97.03
34454;BME280;60061;52.080;5.312;2022-11-20T00:31:30;101326.0;;;-1.95;95.02
34454;BME280;60061;52.080;5.312;2022-11-20T00:33:06;101324.0;;;-1.97;94.31
34454;BME280;60061;52.080;5.312;2022-11-20T00:34:43;101321.0;;;-1.91;91.76
34454;BME280;60061;52.080;5.312;2022-11-20T00:39:34;101318.0;;;-2.22;97.7
34454;BME280;60061;52.080;5.312;2022-11-20T00:41:13;101314.0;;;-2.24;97.81
34454;BME280;60061;52.080;5.312;2022-11-20T00:42:49;101311.0;;;-2.19;97.01
34454;BME280;60061;52.080;5.312;2022-11-20T00:46:04;101314.0;;;-2.15;95.11
34454;BME280;60061;52.080;5.312;2022-11-20T00:47:41;101311.0;;;-2.18;96.6
34454;BME280;60061;52.080;5.312;2022-11-20T00:49:17;101305.0;;;-2.23;97.24
34454;BME280;60061;52.080;5.312;2022-11-20T00:54:10;101303.0;;;-2.22;99.17
34454;BME280;60061;52.080;5.312;2022-11-20T00:55:52;101296.0;;;-2.18;99.51
34454;BME280;60061;52.080;5.312;2022-11-20T00:57:29;101305.0;;;-2.24;98.83
34454;BME280;60061;52.080;5.312;2022-11-20T01:00:42;101301.0;;;-2.18;96.33
34454;BME280;60061;52.080;5.312;2022-11-20T01:02:18;101303.0;;;-2.03;94.64
34454;BME280;60061;52.080;5.312;2022-11-20T01:03:56;101308.0;;;-2.03;92.38
34454;BME280;60061;52.080;5.312;2022-11-20T01:07:10;101300.0;;;-2.0;91.07
34454;BME280;60061;52.080;5.312;2022-11-20T01:08:48;101303.0;;;-2.04;90.87
34454;BME280;60061;52.080;5.312;2022-11-20T01:10:25;101306.0;;;-2.04;89.71
34454;BME280;60061;52.080;5.312;2022-11-20T01:13:37;101307.0;;;-2.18;90.02
34454;BME280;60061;52.080;5.312;2022-11-20T01:15:13;101312.0;;;-2.2;89.36
34454;BME280;60061;52.080;5.312;2022-11-20T01:16:51;101311.0;;;-2.34;90.8
34454;BME280;60061;52.080;5.312;2022-11-20T01:18:28;101312.0;;;-2.35;92.72
34454;BME280;60061;52.080;5.312;2022-11-20T01:21:44;101311.0;;;-2.36;93.35
34454;BME280;60061;52.080;5.312;2022-11-20T01:23:21;101305.0;;;-2.39;93.0
34454;BME280;60061;52.080;5.312;2022-11-20T01:24:57;101307.0;;;-2.4;93.05
34454;BME280;60061;52.080;5.312;2022-11-20T01:28:12;101302.0;;;-2.4;92.4
34454;BME280;60061;52.080;5.312;2022-11-20T01:29:48;101297.0;;;-2.45;90.55
34454;BME280;60061;52.080;5.312;2022-11-20T01:31:27;101296.0;;;-2.31;88.83
34454;BME280;60061;52.080;5.312;2022-11-20T01:33:04;101297.0;;;-2.58;88.7
34454;BME280;60061;52.080;5.312;2022-11-20T01:36:17;101300.0;;;-2.66;88.56
34454;BME280;60061;52.080;5.312;2022-11-20T01:37:55;101308.0;;;-2.84;89.05
34454;BME280;60061;52.080;5.312;2022-11-20T01:39:31;101300.0;;;-2.71;89.41
34454;BME280;60061;52.080;5.312;2022-11-20T01:43:50;101301.0;;;-2.72;94.59
34454;BME280;60061;52.080;5.312;2022-11-20T01:45:55;101295.0;;;-2.7;99.25
34454;BME280;60061;52.080;5.312;2022-11-20T01:47:38;101291.0;;;-2.86;96.66
34454;BME280;60061;52.080;5.312;2022-11-20T01:49:20;101289.0;;;-2.85;97.27
34454;BME280;60061;52.080;5.312;2022-11-20T01:51:00;101289.0;;;-2.62;98.05
34454;BME280;60061;52.080;5.312;2022-11-20T01:52:39;101291.0;;;-2.49;95.06
34454;BME280;60061;52.080;5.312;2022-11-20T01:54:21;101296.0;;;-2.45;92.33
34454;BME280;60061;52.080;5.312;2022-11-20T01:57:44;101298.0;;;-2.74;91.33
34454;BME280;60061;52.080;5.312;2022-11-20T01:59:24;101305.0;;;-2.73;90.39
34454;BME280;60061;52.080;5.312;2022-11-20T02:01:03;101301.0;;;-2.7;90.2
34454;BME280;60061;52.080;5.312;2022-11-20T02:02:43;101298.0;;;-2.86;90.84
34454;BME280;60061;52.080;5.312;2022-11-20T02:06:04;101293.0;;;-2.83;93.71
34454;BME280;60061;52.080;5.312;2022-11-20T02:07:43;101293.0;;;-2.82;95.2
34454;BME280;60061;52.080;5.312;2022-11-20T02:09:20;101297.0;;;-2.88;92.58
34454;BME280;60061;52.080;5.312;2022-11-20T02:10:56;101305.0;;;-2.76;90.88
34454;BME280;60061;52.080;5.312;2022-11-20T02:16:08;101297.0;;;-2.9;95.45
34454;BME280;60061;52.080;5.312;2022-11-20T02:17:47;101290.0;;;-2.81;96.54
34454;BME280;60061;52.080;5.312;2022-11-20T02:19:27;101292.0;;;-2.78;93.61
34454;BME280;60061;52.080;5.312;2022-11-20T02:22:54;101280.0;;;-2.83;92.15
34454;BME280;60061;52.080;5.312;2022-11-20T02:24:33;101276.0;;;-2.88;96.82
34454;BME280;60061;52.080;5.312;2022-11-20T02:26:12;101272.0;;;-2.85;95.1
34454;BME280;60061;52.080;5.312;2022-11-20T02:27:51;101268.0;;;-2.84;96.03
34454;BME280;60061;52.080;5.312;2022-11-20T02:31:10;101271.0;;;-2.86;98.14
34454;BME280;60061;52.080;5.312;2022-11-20T02:32:46;101259.0;;;-2.76;98.82
34454;BME280;60061;52.080;5.312;2022-11-20T02:34:22;101259.0;;;-2.8;98.87
34454;BME280;60061;52.080;5.312;2022-11-20T02:35:58;101263.0;;;-2.77;97.32
34454;BME280;60061;52.080;5.312;2022-11-20T02:39:16;101270.0;;;-2.73;94.41
34454;BME280;60061;52.080;5.312;2022-11-20T02:40:53;101264.0;;;-2.56;92.02
34454;BME280;60061;52.080;5.312;2022-11-20T02:42:29;101263.0;;;-2.58;90.24
34454;BME280;60061;52.080;5.312;2022-11-20T02:45:41;101269.0;;;-2.6;89.45
34454;BME280;60061;52.080;5.312;2022-11-20T02:47:18;101264.0;;;-2.86;88.61
34454;BME280;60061;52.080;5.312;2022-11-20T02:48:54;101264.0;;;-3.01;88.89
34454;BME280;60061;52.080;5.312;2022-11-20T02:53:43;101274.0;;;-3.05;95.08
34454;BME280;60061;52.080;5.312;2022-11-20T02:55:19;101272.0;;;-3.06;92.31
34454;BME280;60061;52.080;5.312;2022-11-20T02:56:55;101268.0;;;-2.96;90.14
34454;BME280;60061;52.080;5.312;2022-11-20T03:00:08;101263.0;;;-3.02;89.72
34454;BME280;60061;52.080;5.312;2022-11-20T03:01:44;101260.0;;;-3.09;93.84
34454;BME280;60061;52.080;5.312;2022-11-20T03:03:21;101262.0;;;-3.12;96.17
34454;BME280;60061;52.080;5.312;2022-11-20T03:06:34;101260.0;;;-3.11;94.29
34454;BME280;60061;52.080;5.312;2022-11-20T03:08:10;101257.0;;;-3.1;91.27
34454;BME280;60061;52.080;5.312;2022-11-20T03:09:46;101255.0;;;-3.03;89.56
34454;BME280;60061;52.080;5.312;2022-11-20T03:11:23;101248.0;;;-3.19;90.17
34454;BME280;60061;52.080;5.312;2022-11-20T03:14:36;101250.0;;;-3.1;89.7
34454;BME280;60061;52.080;5.312;2022-11-20T03:16:14;101253.0;;;-3.08;89.47
34454;BME280;60061;52.080;5.312;2022-11-20T03:17:53;101259.0;;;-3.23;91.32
34454;BME280;60061;52.080;5.312;2022-11-20T03:21:07;101255.0;;;-3.33;91.58
34454;BME280;60061;52.080;5.312;2022-11-20T03:22:43;101253.0;;;-3.3;94.29
34454;BME280;60061;52.080;5.312;2022-11-20T03:24:19;101248.0;;;-3.34;94.36
34454;BME280;60061;52.080;5.312;2022-11-20T03:27:33;101241.0;;;-3.37;93.31
34454;BME280;60061;52.080;5.312;2022-11-20T03:29:09;101242.0;;;-3.27;91.86
34454;BME280;60061;52.080;5.312;2022-11-20T03:30:45;101240.0;;;-3.41;89.78
34454;BME280;60061;52.080;5.312;2022-11-20T03:32:21;101239.0;;;-3.43;91.35
34454;BME280;60061;52.080;5.312;2022-11-20T03:35:35;101238.0;;;-3.41;91.6
34454;BME280;60061;52.080;5.312;2022-11-20T03:37:11;101243.0;;;-3.34;89.68
34454;BME280;60061;52.080;5.312;2022-11-20T03:38:47;101247.0;;;-3.32;88.91
34454;BME280;60061;52.080;5.312;2022-11-20T03:42:00;101246.0;;;-3.4;88.79
34454;BME280;60061;52.080;5.312;2022-11-20T03:43:37;101246.0;;;-3.51;88.99
34454;BME280;60061;52.080;5.312;2022-11-20T03:46:52;101241.0;;;-3.58;93.33
34454;BME280;60061;52.080;5.312;2022-11-20T03:48:28;101236.0;;;-3.51;91.48
34454;BME280;60061;52.080;5.312;2022-11-20T03:50:06;101233.0;;;-3.58;95.54
34454;BME280;60061;52.080;5.312;2022-11-20T03:51:43;101228.0;;;-3.54;93.76
34454;BME280;60061;52.080;5.312;2022-11-20T03:53:20;101233.0;;;-3.54;91.78
34454;BME280;60061;52.080;5.312;2022-11-20T03:56:35;101233.0;;;-3.47;89.66
34454;BME280;60061;52.080;5.312;2022-11-20T03:58:11;101230.0;;;-3.57;89.77
34454;BME280;60061;52.080;5.312;2022-11-20T03:59:47;101223.0;;;-3.63;90.24
34454;BME280;60061;52.080;5.312;2022-11-20T04:03:03;101224.0;;;-3.66;91.76
34454;BME280;60061;52.080;5.312;2022-11-20T04:04:39;101221.0;;;-3.63;93.84
34454;BME280;60061;52.080;5.312;2022-11-20T04:06:18;101224.0;;;-3.62;92.73
34454;BME280;60061;52.080;5.312;2022-11-20T04:07:54;101211.0;;;-3.67;96.95
34454;BME280;60061;52.080;5.312;2022-11-20T04:11:09;101208.0;;;-3.65;97.52
34454;BME280;60061;52.080;5.312;2022-11-20T04:12:46;101213.0;;;-3.66;93.69
34454;BME280;60061;52.080;5.312;2022-11-20T04:14:22;101214.0;;;-3.5;91.65
34454;BME280;60061;52.080;5.312;2022-11-20T04:17:35;101211.0;;;-3.62;90.54
34454;BME280;60061;52.080;5.312;2022-11-20T04:19:14;101209.0;;;-3.6;93.42
34454;BME280;60061;52.080;5.312;2022-11-20T04:20:51;101201.0;;;-3.66;92.36
34454;BME280;60061;52.080;5.312;2022-11-20T04:24:06;101202.0;;;-3.74;91.39
34454;BME280;60061;52.080;5.312;2022-11-20T04:25:43;101196.0;;;-3.73;94.11
34454;BME280;60061;52.080;5.312;2022-11-20T04:27:19;101202.0;;;-3.65;96.56
34454;BME280;60061;52.080;5.312;2022-11-20T04:32:08;101208.0;;;-3.66;93.55
34454;BME280;60061;52.080;5.312;2022-11-20T04:33:45;101206.0;;;-3.71;96.78
34454;BME280;60061;52.080;5.312;2022-11-20T04:35:22;101205.0;;;-3.78;95.65
34454;BME280;60061;52.080;5.312;2022-11-20T04:38:33;101202.0;;;-3.74;91.26
34454;BME280;60061;52.080;5.312;2022-11-20T04:40:10;101199.0;;;-3.8;95.0
34454;BME280;60061;52.080;5.312;2022-11-20T04:41:47;101189.0;;;-3.97;98.27
34454;BME280;60061;52.080;5.312;2022-11-20T04:44:59;101189.0;;;-3.96;99.18
34454;BME280;60061;52.080;5.312;2022-11-20T04:46:37;101181.0;;;-3.93;97.72
34454;BME280;60061;52.080;5.312;2022-11-20T04:48:14;101188.0;;;-3.71;94.14
34454;BME280;60061;52.080;5.312;2022-11-20T04:49:51;101189.0;;;-3.71;90.35
34454;BME280;60061;52.080;5.312;2022-11-20T04:53:03;101192.0;;;-3.81;89.48
34454;BME280;60061;52.080;5.312;2022-11-20T04:54:39;101187.0;;;-3.74;88.57
34454;BME280;60061;52.080;5.312;2022-11-20T04:56:15;101197.0;;;-3.72;87.81
34454;BME280;60061;52.080;5.312;2022-11-20T04:59:29;101189.0;;;-3.81;87.56
34454;BME280;60061;52.080;5.312;2022-11-20T05:01:06;101190.0;;;-3.98;93.4
34454;BME280;60061;52.080;5.312;2022-11-20T05:02:43;101182.0;;;-4.03;96.7
34454;BME280;60061;52.080;5.312;2022-11-20T05:04:19;101171.0;;;-4.13;96.06
34454;BME280;60061;52.080;5.312;2022-11-20T05:07:32;101176.0;;;-4.15;94.4
34454;BME280;60061;52.080;5.312;2022-11-20T05:09:08;101174.0;;;-4.17;92.11
34454;BME280;60061;52.080;5.312;2022-11-20T05:10:44;101172.0;;;-4.16;96.1
34454;BME280;60061;52.080;5.312;2022-11-20T05:13:58;101166.0;;;-4.2;98.51
34454;BME280;60061;52.080;5.312;2022-11-20T05:15:35;101166.0;;;-4.28;98.58
34454;BME280;60061;52.080;5.312;2022-11-20T05:17:11;101159.0;;;-4.21;95.04
34454;BME280;60061;52.080;5.312;2022-11-20T05:20:26;101156.0;;;-4.18;95.14
34454;BME280;60061;52.080;5.312;2022-11-20T05:22:04;101159.0;;;-4.17;95.6
34454;BME280;60061;52.080;5.312;2022-11-20T05:23:41;101155.0;;;-4.18;97.13
34454;BME280;60061;52.080;5.312;2022-11-20T05:25:19;101155.0;;;-4.17;95.87
34454;BME280;60061;52.080;5.312;2022-11-20T05:28:32;101157.0;;;-4.13;95.54
34454;BME280;60061;52.080;5.312;2022-11-20T05:30:09;101155.0;;;-4.23;96.15
34454;BME280;60061;52.080;5.312;2022-11-20T05:31:48;101146.0;;;-4.22;96.15
34454;BME280;60061;52.080;5.312;2022-11-20T05:35:00;101147.0;;;-4.27;96.23
34454;BME280;60061;52.080;5.312;2022-11-20T05:36:36;101146.0;;;-4.24;92.69
34454;BME280;60061;52.080;5.312;2022-11-20T05:38:12;101144.0;;;-4.17;90.76
34454;BME280;60061;52.080;5.312;2022-11-20T05:41:25;101148.0;;;-4.09;89.1
34454;BME280;60061;52.080;5.312;2022-11-20T05:43:01;101143.0;;;-4.16;88.26
34454;BME280;60061;52.080;5.312;2022-11-20T05:44:38;101149.0;;;-4.08;87.5
34454;BME280;60061;52.080;5.312;2022-11-20T05:46:17;101150.0;;;-4.15;87.12
34454;BME280;60061;52.080;5.312;2022-11-20T05:49:35;101156.0;;;-4.19;86.82
34454;BME280;60061;52.080;5.312;2022-11-20T05:51:13;101157.0;;;-4.25;86.82
34454;BME280;60061;52.080;5.312;2022-11-20T05:52:51;101157.0;;;-4.37;87.81
34454;BME280;60061;52.080;5.312;2022-11-20T05:56:05;101168.0;;;-4.48;93.85
34454;BME280;60061;52.080;5.312;2022-11-20T05:57:45;101165.0;;;-4.51;94.52
34454;BME280;60061;52.080;5.312;2022-11-20T05:59:21;101169.0;;;-4.5;92.04
34454;BME280;60061;52.080;5.312;2022-11-20T06:01:03;101174.0;;;-4.48;89.96
34454;BME280;60061;52.080;5.312;2022-11-20T06:04:17;101180.0;;;-4.48;92.47
34454;BME280;60061;52.080;5.312;2022-11-20T06:05:54;101185.0;;;-4.37;89.6
34454;BME280;60061;52.080;5.312;2022-11-20T06:07:30;101188.0;;;-4.29;88.53
34454;BME280;60061;52.080;5.312;2022-11-20T06:10:42;101197.0;;;-4.34;87.8
34454;BME280;60061;52.080;5.312;2022-11-20T06:12:18;101194.0;;;-4.38;90.46
34454;BME280;60061;52.080;5.312;2022-11-20T06:13:55;101193.0;;;-4.45;88.54
34454;BME280;60061;52.080;5.312;2022-11-20T06:15:30;101188.0;;;-4.63;92.29
34454;BME280;60061;52.080;5.312;2022-11-20T06:18:43;101189.0;;;-4.6;93.16
34454;BME280;60061;52.080;5.312;2022-11-20T06:20:21;101189.0;;;-4.56;93.81
34454;BME280;60061;52.080;5.312;2022-11-20T06:21:57;101184.0;;;-4.52;94.98
34454;BME280;60061;52.080;5.312;2022-11-20T06:25:12;101176.0;;;-4.48;91.68
34454;BME280;60061;52.080;5.312;2022-11-20T06:26:49;101173.0;;;-4.47;93.36
34454;BME280;60061;52.080;5.312;2022-11-20T06:28:25;101180.0;;;-4.49;92.04
34454;BME280;60061;52.080;5.312;2022-11-20T06:31:39;101171.0;;;-4.49;90.29
34454;BME280;60061;52.080;5.312;2022-11-20T06:34:51;101174.0;;;-4.56;92.56
34454;BME280;60061;52.080;5.312;2022-11-20T06:36:27;101184.0;;;-4.43;90.54
34454;BME280;60061;52.080;5.312;2022-11-20T06:39:42;101175.0;;;-4.47;93.03
34454;BME280;60061;52.080;5.312;2022-11-20T06:41:20;101178.0;;;-4.47;91.72
34454;BME280;60061;52.080;5.312;2022-11-20T06:42:57;101182.0;;;-4.45;92.34
34454;BME280;60061;52.080;5.312;2022-11-20T06:46:11;101185.0;;;-4.38;90.5
34454;BME280;60061;52.080;5.312;2022-11-20T06:47:48;101190.0;;;-4.41;89.43
34454;BME280;60061;52.080;5.312;2022-11-20T06:49:25;101184.0;;;-4.44;88.81
34454;BME280;60061;52.080;5.312;2022-11-20T06:51:03;101180.0;;;-4.46;91.51
34454;BME280;60061;52.080;5.312;2022-11-20T06:54:16;101180.0;;;-4.49;91.12
34454;BME280;60061;52.080;5.312;2022-11-20T06:55:52;101173.0;;;-4.43;93.67
34454;BME280;60061;52.080;5.312;2022-11-20T06:57:32;101171.0;;;-4.4;91.47
34454;BME280;60061;52.080;5.312;2022-11-20T07:00:44;101165.0;;;-4.41;89.73
34454;BME280;60061;52.080;5.312;2022-11-20T07:02:21;101164.0;;;-4.44;90.83
34454;BME280;60061;52.080;5.312;2022-11-20T07:03:57;101161.0;;;-4.45;93.13
34454;BME280;60061;52.080;5.312;2022-11-20T07:07:10;101156.0;;;-4.54;96.4
34454;BME280;60061;52.080;5.312;2022-11-20T07:08:47;101160.0;;;-4.51;93.59
34454;BME280;60061;52.080;5.312;2022-11-20T07:10:23;101156.0;;;-4.55;94.62
34454;BME280;60061;52.080;5.312;2022-11-20T07:12:00;101155.0;;;-4.47;94.72
34454;BME280;60061;52.080;5.312;2022-11-20T07:15:12;101152.0;;;-4.55;97.17
34454;BME280;60061;52.080;5.312;2022-11-20T07:16:49;101155.0;;;-4.53;97.43
34454;BME280;60061;52.080;5.312;2022-11-20T07:18:26;101155.0;;;-4.62;98.1
34454;BME280;60061;52.080;5.312;2022-11-20T07:21:38;101155.0;;;-4.6;98.67
34454;BME280;60061;52.080;5.312;2022-11-20T07:23:14;101151.0;;;-4.51;97.9
34454;BME280;60061;52.080;5.312;2022-11-20T07:24:50;101148.0;;;-4.45;98.08
34454;BME280;60061;52.080;5.312;2022-11-20T07:28:04;101145.0;;;-4.43;97.45
34454;BME280;60061;52.080;5.312;2022-11-20T07:29:40;101147.0;;;-4.43;98.09
34454;BME280;60061;52.080;5.312;2022-11-20T07:31:16;101144.0;;;-4.23;95.89
34454;BME280;60061;52.080;5.312;2022-11-20T07:32:53;101147.0;;;-4.25;95.52
34454;BME280;60061;52.080;5.312;2022-11-20T07:36:07;101148.0;;;-4.25;97.33
34454;BME280;60061;52.080;5.312;2022-11-20T07:37:46;101151.0;;;-4.25;96.59
34454;BME280;60061;52.080;5.312;2022-11-20T07:42:38;101149.0;;;-4.23;95.58
34454;BME280;60061;52.080;5.312;2022-11-20T07:44:14;101145.0;;;-4.23;97.35
34454;BME280;60061;52.080;5.312;2022-11-20T07:45:50;101150.0;;;-4.18;93.98
34454;BME280;60061;52.080;5.312;2022-11-20T07:49:05;101158.0;;;-4.09;92.85
34454;BME280;60061;52.080;5.312;2022-11-20T07:50:41;101151.0;;;-4.15;93.13
34454;BME280;60061;52.080;5.312;2022-11-20T07:52:17;101160.0;;;-4.09;93.35
34454;BME280;60061;52.080;5.312;2022-11-20T07:53:53;101158.0;;;-4.09;93.94
34454;BME280;60061;52.080;5.312;2022-11-20T07:57:07;101159.0;;;-4.06;93.69
34454;BME280;60061;52.080;5.312;2022-11-20T07:58:43;101159.0;;;-3.94;93.34
34454;BME280;60061;52.080;5.312;2022-11-20T08:00:19;101155.0;;;-4.01;94.99
34454;BME280;60061;52.080;5.312;2022-11-20T08:03:32;101151.0;;;-3.96;97.37
34454;BME280;60061;52.080;5.312;2022-11-20T08:05:09;101153.0;;;-3.84;97.89
34454;BME280;60061;52.080;5.312;2022-11-20T08:06:46;101147.0;;;-3.75;97.89
34454;BME280;60061;52.080;5.312;2022-11-20T08:09:59;101145.0;;;-3.74;97.66
34454;BME280;60061;52.080;5.312;2022-11-20T08:15:48;101130.0;;;-3.55;97.6
34454;BME280;60061;52.080;5.312;2022-11-20T08:17:25;101128.0;;;-3.5;97.95
34454;BME280;60061;52.080;5.312;2022-11-20T08:19:01;101125.0;;;-3.48;97.85
34454;BME280;60061;52.080;5.312;2022-11-20T08:22:16;101128.0;;;-3.44;98.11
34454;BME280;60061;52.080;5.312;2022-11-20T08:23:51;101128.0;;;-3.35;99.58
34454;BME280;60061;52.080;5.312;2022-11-20T08:25:29;101125.0;;;-3.12;100.0
34454;BME280;60061;52.080;5.312;2022-11-20T08:28:42;101121.0;;;-2.89;99.98
34454;BME280;60061;52.080;5.312;2022-11-20T08:30:18;101125.0;;;-2.94;100.0
34454;BME280;60061;52.080;5.312;2022-11-20T08:31:54;101130.0;;;-2.81;100.0
34454;BME280;60061;52.080;5.312;2022-11-20T08:35:09;101128.0;;;-2.71;100.0
34454;BME280;60061;52.080;5.312;2022-11-20T08:36:45;101131.0;;;-2.7;100.0
34454;BME280;60061;52.080;5.312;2022-11-20T08:38:21;101131.0;;;-2.58;100.0
34454;BME280;60061;52.080;5.312;2022-11-20T08:39:57;101131.0;;;-2.53;100.0
34454;BME280;60061;52.080;5.312;2022-11-20T08:43:10;101131.0;;;-2.44;100.0
34454;BME280;60061;52.080;5.312;2022-11-20T08:44:46;101138.0;;;-2.5;100.0
34454;BME280;60061;52.080;5.312;2022-11-20T08:49:37;101136.0;;;-2.14;100.0
34454;BME280;60061;52.080;5.312;2022-11-20T08:51:14;101133.0;;;-2.03;100.0
34454;BME280;60061;52.080;5.312;2022-11-20T08:52:51;101132.0;;;-1.97;100.0
34454;BME280;60061;52.080;5.312;2022-11-20T08:54:27;101136.0;;;-1.9;100.0
34454;BME280;60061;52.080;5.312;2022-11-20T08:57:41;101134.0;;;-1.85;100.0
34454;BME280;60061;52.080;5.312;2022-11-20T08:59:17;101130.0;;;-1.84;100.0
34454;BME280;60061;52.080;5.312;2022-11-20T09:00:53;101126.0;;;-1.73;100.0
34454;BME280;60061;52.080;5.312;2022-11-20T09:04:06;101132.0;;;-1.64;100.0
34454;BME280;60061;52.080;5.312;2022-11-20T09:05:43;101138.0;;;-1.5;100.0
34454;BME280;60061;52.080;5.312;2022-11-20T09:07:19;101125.0;;;-1.55;100.0
34454;BME280;60061;52.080;5.312;2022-11-20T09:10:32;101126.0;;;-1.5;100.0
34454;BME280;60061;52.080;5.312;2022-11-20T09:12:08;101112.0;;;-1.39;100.0
34454;BME280;60061;52.080;5.312;2022-11-20T09:13:44;101117.0;;;-1.38;100.0
34454;BME280;60061;52.080;5.312;2022-11-20T09:16:59;101115.0;;;-1.35;100.0
34454;BME280;60061;52.080;5.312;2022-11-20T09:18:36;101110.0;;;-1.24;100.0
34454;BME280;60061;52.080;5.312;2022-11-20T09:20:14;101107.0;;;-1.24;100.0
34454;BME280;60061;52.080;5.312;2022-11-20T09:21:50;101102.0;;;-1.13;100.0
34454;BME280;60061;52.080;5.312;2022-11-20T09:25:08;101093.0;;;-1.0;100.0
34454;BME280;60061;52.080;5.312;2022-11-20T09:26:44;101096.0;;;-1.03;100.0
34454;BME280;60061;52.080;5.312;2022-11-20T09:28:21;101094.0;;;-0.99;100.0
34454;BME280;60061;52.080;5.312;2022-11-20T09:31:33;101090.0;;;-0.85;100.0
34454;BME280;60061;52.080;5.312;2022-11-20T09:33:10;101085.0;;;-0.67;100.0
34454;BME280;60061;52.080;5.312;2022-11-20T09:34:46;101082.0;;;-0.72;100.0
34454;BME280;60061;52.080;5.312;2022-11-20T09:36:22;101071.0;;;-0.75;100.0
34454;BME280;60061;52.080;5.312;2022-11-20T09:39:38;101072.0;;;-0.55;100.0
34454;BME280;60061;52.080;5.312;2022-11-20T09:41:36;101072.0;;;-0.42;100.0
34454;BME280;60061;52.080;5.312;2022-11-20T09:43:29;101063.0;;;-0.4;100.0
